Terminal Aerodrome Forecast
Issued by NWS

Home | Current Version | Previous Version | Text Only | Print | Product List | Glossary On
Versions: 1 2 3 4 5 6 7 8 9 10 11 12 13 14
000
FTUS42 TJSJ 281100
TAFJBQ
TAF
TJBQ 281140Z 2812/2912 10011KT P6SM SCT020 SCT040
     FM281300 10012G18KT P6SM SCT025
     FM281700 09020G30KT P6SM VCSH SCT025 BKN035
     FM282200 09015KT P6SM SCT025 BKN040=

USA.gov is the U.S. government's official web portal to all federal, state and local government web resources and services.